sensor_id;sensor_type;location;lat;lon;timestamp;P1;durP1;ratioP1;P2;durP2;ratioP2
5959;SDS011;3006;50.956;7.002;2022-07-11T00:01:33;8.57;;;3.10;;
5959;SDS011;3006;50.956;7.002;2022-07-11T00:04:01;6.00;;;2.70;;
5959;SDS011;3006;50.956;7.002;2022-07-11T00:06:29;4.40;;;2.70;;
5959;SDS011;3006;50.956;7.002;2022-07-11T00:08:57;5.67;;;3.17;;
5959;SDS011;3006;50.956;7.002;2022-07-11T00:11:27;3.80;;;2.90;;
5959;SDS011;3006;50.956;7.002;2022-07-11T00:13:55;4.60;;;2.70;;
5959;SDS011;3006;50.956;7.002;2022-07-11T00:16:23;5.57;;;3.10;;
5959;SDS011;3006;50.956;7.002;2022-07-11T00:18:51;9.33;;;3.40;;
5959;SDS011;3006;50.956;7.002;2022-07-11T00:21:19;6.80;;;2.70;;
5959;SDS011;3006;50.956;7.002;2022-07-11T00:23:47;4.80;;;2.53;;
5959;SDS011;3006;50.956;7.002;2022-07-11T00:26:16;4.03;;;3.20;;
5959;SDS011;3006;50.956;7.002;2022-07-11T00:28:45;2.90;;;2.60;;
5959;SDS011;3006;50.956;7.002;2022-07-11T00:31:14;8.10;;;3.10;;
5959;SDS011;3006;50.956;7.002;2022-07-11T00:33:42;8.40;;;3.20;;
5959;SDS011;3006;50.956;7.002;2022-07-11T00:36:11;5.07;;;3.00;;
5959;SDS011;3006;50.956;7.002;2022-07-11T00:38:39;6.93;;;3.40;;
5959;SDS011;3006;50.956;7.002;2022-07-11T00:41:07;6.17;;;2.70;;
5959;SDS011;3006;50.956;7.002;2022-07-11T00:43:37;5.90;;;2.90;;
5959;SDS011;3006;50.956;7.002;2022-07-11T00:46:08;5.03;;;2.80;;
5959;SDS011;3006;50.956;7.002;2022-07-11T00:48:37;7.27;;;2.80;;
5959;SDS011;3006;50.956;7.002;2022-07-11T00:51:05;7.10;;;2.50;;
5959;SDS011;3006;50.956;7.002;2022-07-11T00:53:33;3.30;;;2.57;;
5959;SDS011;3006;50.956;7.002;2022-07-11T00:56:03;3.30;;;2.77;;
5959;SDS011;3006;50.956;7.002;2022-07-11T00:58:31;6.20;;;3.13;;
5959;SDS011;3006;50.956;7.002;2022-07-11T01:01:00;7.87;;;3.10;;
5959;SDS011;3006;50.956;7.002;2022-07-11T01:03:31;4.60;;;2.60;;
5959;SDS011;3006;50.956;7.002;2022-07-11T01:06:02;5.20;;;2.97;;
5959;SDS011;3006;50.956;7.002;2022-07-11T01:08:30;4.43;;;2.90;;
5959;SDS011;3006;50.956;7.002;2022-07-11T01:11:00;8.43;;;3.13;;
5959;SDS011;3006;50.956;7.002;2022-07-11T01:13:29;3.33;;;2.73;;
5959;SDS011;3006;50.956;7.002;2022-07-11T01:16:07;7.70;;;2.87;;
5959;SDS011;3006;50.956;7.002;2022-07-11T01:18:42;7.37;;;2.60;;
5959;SDS011;3006;50.956;7.002;2022-07-11T01:21:19;5.50;;;3.13;;
5959;SDS011;3006;50.956;7.002;2022-07-11T01:23:52;5.50;;;3.03;;
5959;SDS011;3006;50.956;7.002;2022-07-11T01:26:22;7.77;;;3.13;;
5959;SDS011;3006;50.956;7.002;2022-07-11T01:28:51;5.93;;;3.43;;
5959;SDS011;3006;50.956;7.002;2022-07-11T01:31:19;7.60;;;3.37;;
5959;SDS011;3006;50.956;7.002;2022-07-11T01:33:48;8.63;;;3.07;;
5959;SDS011;3006;50.956;7.002;2022-07-11T01:36:17;12.20;;;3.23;;
5959;SDS011;3006;50.956;7.002;2022-07-11T01:38:45;9.33;;;3.07;;
5959;SDS011;3006;50.956;7.002;2022-07-11T01:41:14;6.57;;;3.30;;
5959;SDS011;3006;50.956;7.002;2022-07-11T01:43:42;7.87;;;3.53;;
5959;SDS011;3006;50.956;7.002;2022-07-11T01:46:11;5.07;;;3.30;;
5959;SDS011;3006;50.956;7.002;2022-07-11T01:48:40;4.37;;;2.87;;
5959;SDS011;3006;50.956;7.002;2022-07-11T01:51:08;5.10;;;2.87;;
5959;SDS011;3006;50.956;7.002;2022-07-11T01:53:36;8.43;;;3.10;;
5959;SDS011;3006;50.956;7.002;2022-07-11T01:56:05;6.53;;;3.30;;
5959;SDS011;3006;50.956;7.002;2022-07-11T01:58:55;10.83;;;3.73;;
5959;SDS011;3006;50.956;7.002;2022-07-11T02:01:23;5.30;;;3.13;;
5959;SDS011;3006;50.956;7.002;2022-07-11T02:03:51;4.50;;;3.00;;
5959;SDS011;3006;50.956;7.002;2022-07-11T02:06:21;4.80;;;3.60;;
5959;SDS011;3006;50.956;7.002;2022-07-11T02:08:49;8.10;;;4.00;;
5959;SDS011;3006;50.956;7.002;2022-07-11T02:11:17;7.87;;;3.80;;
5959;SDS011;3006;50.956;7.002;2022-07-11T02:13:45;4.83;;;3.27;;
5959;SDS011;3006;50.956;7.002;2022-07-11T02:16:15;5.87;;;3.17;;
5959;SDS011;3006;50.956;7.002;2022-07-11T02:18:44;5.23;;;3.40;;
5959;SDS011;3006;50.956;7.002;2022-07-11T02:21:12;6.07;;;3.23;;
5959;SDS011;3006;50.956;7.002;2022-07-11T02:23:40;8.10;;;3.63;;
5959;SDS011;3006;50.956;7.002;2022-07-11T02:26:08;5.70;;;3.97;;
5959;SDS011;3006;50.956;7.002;2022-07-11T02:28:36;8.73;;;3.50;;
5959;SDS011;3006;50.956;7.002;2022-07-11T02:31:06;9.10;;;4.30;;
5959;SDS011;3006;50.956;7.002;2022-07-11T02:33:35;6.80;;;4.00;;
5959;SDS011;3006;50.956;7.002;2022-07-11T02:36:04;4.43;;;3.30;;
5959;SDS011;3006;50.956;7.002;2022-07-11T02:38:33;7.60;;;4.30;;
5959;SDS011;3006;50.956;7.002;2022-07-11T02:41:01;5.10;;;3.40;;
5959;SDS011;3006;50.956;7.002;2022-07-11T02:43:30;6.77;;;3.97;;
5959;SDS011;3006;50.956;7.002;2022-07-11T02:45:58;8.43;;;3.80;;
5959;SDS011;3006;50.956;7.002;2022-07-11T02:48:26;6.20;;;4.00;;
5959;SDS011;3006;50.956;7.002;2022-07-11T02:50:55;4.90;;;3.80;;
5959;SDS011;3006;50.956;7.002;2022-07-11T02:53:23;5.03;;;4.10;;
5959;SDS011;3006;50.956;7.002;2022-07-11T02:55:53;7.90;;;4.00;;
5959;SDS011;3006;50.956;7.002;2022-07-11T02:58:21;7.90;;;4.10;;
5959;SDS011;3006;50.956;7.002;2022-07-11T03:00:49;8.10;;;4.30;;
5959;SDS011;3006;50.956;7.002;2022-07-11T03:03:18;6.67;;;4.47;;
5959;SDS011;3006;50.956;7.002;2022-07-11T03:05:46;13.13;;;4.87;;
5959;SDS011;3006;50.956;7.002;2022-07-11T03:08:16;9.53;;;4.30;;
5959;SDS011;3006;50.956;7.002;2022-07-11T03:10:44;6.57;;;4.43;;
5959;SDS011;3006;50.956;7.002;2022-07-11T03:13:12;11.70;;;4.50;;
5959;SDS011;3006;50.956;7.002;2022-07-11T03:15:40;13.13;;;4.87;;
5959;SDS011;3006;50.956;7.002;2022-07-11T03:18:09;7.13;;;4.80;;
5959;SDS011;3006;50.956;7.002;2022-07-11T03:20:37;7.73;;;5.27;;
5959;SDS011;3006;50.956;7.002;2022-07-11T03:23:05;7.17;;;4.77;;
5959;SDS011;3006;50.956;7.002;2022-07-11T03:25:35;7.87;;;5.00;;
5959;SDS011;3006;50.956;7.002;2022-07-11T03:28:03;9.33;;;4.80;;
5959;SDS011;3006;50.956;7.002;2022-07-11T03:30:32;6.10;;;4.97;;
5959;SDS011;3006;50.956;7.002;2022-07-11T03:33:00;14.37;;;5.00;;
5959;SDS011;3006;50.956;7.002;2022-07-11T03:35:28;7.57;;;4.90;;
5959;SDS011;3006;50.956;7.002;2022-07-11T03:38:08;7.10;;;4.90;;
5959;SDS011;3006;50.956;7.002;2022-07-11T03:40:38;13.70;;;4.90;;
5959;SDS011;3006;50.956;7.002;2022-07-11T03:43:07;6.70;;;4.33;;
5959;SDS011;3006;50.956;7.002;2022-07-11T03:45:35;8.63;;;4.20;;
5959;SDS011;3006;50.956;7.002;2022-07-11T03:48:03;7.70;;;5.70;;
5959;SDS011;3006;50.956;7.002;2022-07-11T03:50:31;13.33;;;4.87;;
5959;SDS011;3006;50.956;7.002;2022-07-11T03:52:59;5.17;;;4.53;;
5959;SDS011;3006;50.956;7.002;2022-07-11T03:55:28;7.53;;;4.90;;
5959;SDS011;3006;50.956;7.002;2022-07-11T03:57:59;6.87;;;5.00;;
5959;SDS011;3006;50.956;7.002;2022-07-11T04:00:27;14.80;;;5.17;;
5959;SDS011;3006;50.956;7.002;2022-07-11T04:02:55;9.60;;;4.90;;
5959;SDS011;3006;50.956;7.002;2022-07-11T04:05:23;10.67;;;5.20;;
5959;SDS011;3006;50.956;7.002;2022-07-11T04:07:52;7.13;;;4.77;;
5959;SDS011;3006;50.956;7.002;2022-07-11T04:10:20;8.60;;;5.20;;
5959;SDS011;3006;50.956;7.002;2022-07-11T04:12:48;8.53;;;5.60;;
5959;SDS011;3006;50.956;7.002;2022-07-11T04:15:18;9.47;;;5.53;;
5959;SDS011;3006;50.956;7.002;2022-07-11T04:17:46;7.80;;;5.63;;
5959;SDS011;3006;50.956;7.002;2022-07-11T04:20:14;8.77;;;5.27;;
5959;SDS011;3006;50.956;7.002;2022-07-11T04:22:42;11.60;;;5.87;;
5959;SDS011;3006;50.956;7.002;2022-07-11T04:25:10;7.10;;;5.50;;
5959;SDS011;3006;50.956;7.002;2022-07-11T04:27:38;7.77;;;5.30;;
5959;SDS011;3006;50.956;7.002;2022-07-11T04:30:07;10.30;;;5.20;;
5959;SDS011;3006;50.956;7.002;2022-07-11T04:32:37;10.80;;;6.20;;
5959;SDS011;3006;50.956;7.002;2022-07-11T04:35:05;12.30;;;5.40;;
5959;SDS011;3006;50.956;7.002;2022-07-11T04:37:34;9.50;;;5.40;;
5959;SDS011;3006;50.956;7.002;2022-07-11T04:40:02;7.67;;;4.80;;
5959;SDS011;3006;50.956;7.002;2022-07-11T04:42:38;12.80;;;5.03;;
5959;SDS011;3006;50.956;7.002;2022-07-11T04:45:07;11.10;;;5.07;;
5959;SDS011;3006;50.956;7.002;2022-07-11T04:47:37;11.03;;;5.00;;
5959;SDS011;3006;50.956;7.002;2022-07-11T04:50:05;7.87;;;5.10;;
5959;SDS011;3006;50.956;7.002;2022-07-11T04:52:34;10.77;;;5.40;;
5959;SDS011;3006;50.956;7.002;2022-07-11T04:55:02;12.53;;;5.80;;
5959;SDS011;3006;50.956;7.002;2022-07-11T04:57:31;7.17;;;4.97;;
5959;SDS011;3006;50.956;7.002;2022-07-11T04:59:59;10.77;;;5.27;;
5959;SDS011;3006;50.956;7.002;2022-07-11T05:02:27;13.17;;;5.73;;
5959;SDS011;3006;50.956;7.002;2022-07-11T05:04:57;10.03;;;5.30;;
5959;SDS011;3006;50.956;7.002;2022-07-11T05:07:25;6.97;;;4.90;;
5959;SDS011;3006;50.956;7.002;2022-07-11T05:09:53;11.80;;;6.60;;
5959;SDS011;3006;50.956;7.002;2022-07-11T05:12:21;19.37;;;5.90;;
5959;SDS011;3006;50.956;7.002;2022-07-11T05:14:49;10.20;;;5.63;;
5959;SDS011;3006;50.956;7.002;2022-07-11T05:17:18;8.53;;;5.33;;
5959;SDS011;3006;50.956;7.002;2022-07-11T05:19:46;8.87;;;5.87;;
5959;SDS011;3006;50.956;7.002;2022-07-11T05:22:15;12.20;;;6.50;;
5959;SDS011;3006;50.956;7.002;2022-07-11T05:24:43;8.17;;;5.50;;
5959;SDS011;3006;50.956;7.002;2022-07-11T05:27:12;13.33;;;5.37;;
5959;SDS011;3006;50.956;7.002;2022-07-11T05:29:40;10.50;;;5.93;;
5959;SDS011;3006;50.956;7.002;2022-07-11T05:32:08;12.20;;;8.73;;
5959;SDS011;3006;50.956;7.002;2022-07-11T05:34:37;8.37;;;6.87;;
5959;SDS011;3006;50.956;7.002;2022-07-11T05:37:06;7.57;;;5.97;;
5959;SDS011;3006;50.956;7.002;2022-07-11T05:39:35;14.50;;;6.40;;
5959;SDS011;3006;50.956;7.002;2022-07-11T05:42:03;10.27;;;6.43;;
5959;SDS011;3006;50.956;7.002;2022-07-11T05:44:32;12.23;;;5.40;;
5959;SDS011;3006;50.956;7.002;2022-07-11T05:47:00;14.50;;;6.57;;
5959;SDS011;3006;50.956;7.002;2022-07-11T05:49:30;13.93;;;5.00;;
5959;SDS011;3006;50.956;7.002;2022-07-11T05:51:59;11.00;;;4.80;;
5959;SDS011;3006;50.956;7.002;2022-07-11T05:54:28;9.50;;;5.10;;
5959;SDS011;3006;50.956;7.002;2022-07-11T05:56:57;10.43;;;5.30;;
5959;SDS011;3006;50.956;7.002;2022-07-11T05:59:27;10.20;;;6.00;;
5959;SDS011;3006;50.956;7.002;2022-07-11T06:01:56;15.90;;;6.40;;
5959;SDS011;3006;50.956;7.002;2022-07-11T06:04:24;9.70;;;5.67;;
5959;SDS011;3006;50.956;7.002;2022-07-11T06:06:53;18.37;;;7.70;;
5959;SDS011;3006;50.956;7.002;2022-07-11T06:09:22;9.83;;;6.80;;
5959;SDS011;3006;50.956;7.002;2022-07-11T06:11:49;11.77;;;7.00;;
5959;SDS011;3006;50.956;7.002;2022-07-11T06:14:19;18.80;;;7.23;;
5959;SDS011;3006;50.956;7.002;2022-07-11T06:16:47;12.73;;;6.37;;
5959;SDS011;3006;50.956;7.002;2022-07-11T06:19:16;9.00;;;6.23;;
5959;SDS011;3006;50.956;7.002;2022-07-11T06:21:44;13.10;;;6.50;;
5959;SDS011;3006;50.956;7.002;2022-07-11T06:24:12;9.23;;;6.27;;
5959;SDS011;3006;50.956;7.002;2022-07-11T06:26:40;9.67;;;6.77;;
5959;SDS011;3006;50.956;7.002;2022-07-11T06:29:08;10.23;;;5.93;;
5959;SDS011;3006;50.956;7.002;2022-07-11T06:31:38;17.17;;;7.20;;
5959;SDS011;3006;50.956;7.002;2022-07-11T06:34:06;10.80;;;6.50;;
5959;SDS011;3006;50.956;7.002;2022-07-11T06:36:34;15.80;;;7.50;;
5959;SDS011;3006;50.956;7.002;2022-07-11T06:39:02;13.90;;;6.50;;
5959;SDS011;3006;50.956;7.002;2022-07-11T06:41:30;10.80;;;6.70;;
5959;SDS011;3006;50.956;7.002;2022-07-11T06:43:58;16.60;;;6.87;;
5959;SDS011;3006;50.956;7.002;2022-07-11T06:46:26;10.60;;;6.47;;
5959;SDS011;3006;50.956;7.002;2022-07-11T06:48:56;11.40;;;6.90;;
5959;SDS011;3006;50.956;7.002;2022-07-11T06:51:24;10.20;;;6.50;;
5959;SDS011;3006;50.956;7.002;2022-07-11T06:53:52;8.50;;;5.30;;
5959;SDS011;3006;50.956;7.002;2022-07-11T06:56:20;8.70;;;6.03;;
5959;SDS011;3006;50.956;7.002;2022-07-11T06:58:48;10.90;;;7.20;;
5959;SDS011;3006;50.956;7.002;2022-07-11T07:01:16;10.73;;;6.20;;
5959;SDS011;3006;50.956;7.002;2022-07-11T07:03:45;6.70;;;5.00;;
5959;SDS011;3006;50.956;7.002;2022-07-11T07:06:16;9.00;;;4.77;;
5959;SDS011;3006;50.956;7.002;2022-07-11T07:08:45;6.93;;;4.47;;
5959;SDS011;3006;50.956;7.002;2022-07-11T07:11:13;4.30;;;3.90;;
5959;SDS011;3006;50.956;7.002;2022-07-11T07:13:41;10.60;;;4.30;;
5959;SDS011;3006;50.956;7.002;2022-07-11T07:16:12;3.93;;;3.40;;
5959;SDS011;3006;50.956;7.002;2022-07-11T07:18:40;6.13;;;3.60;;
5959;SDS011;3006;50.956;7.002;2022-07-11T07:21:13;6.20;;;3.40;;
5959;SDS011;3006;50.956;7.002;2022-07-11T07:23:42;6.80;;;3.33;;
5959;SDS011;3006;50.956;7.002;2022-07-11T07:26:10;5.53;;;3.53;;
5959;SDS011;3006;50.956;7.002;2022-07-11T07:28:38;4.20;;;2.73;;
5959;SDS011;3006;50.956;7.002;2022-07-11T07:31:07;4.93;;;3.30;;
5959;SDS011;3006;50.956;7.002;2022-07-11T07:33:42;6.70;;;3.23;;
5959;SDS011;3006;50.956;7.002;2022-07-11T07:36:12;5.77;;;3.97;;
5959;SDS011;3006;50.956;7.002;2022-07-11T07:38:40;3.43;;;2.63;;
5959;SDS011;3006;50.956;7.002;2022-07-11T07:41:13;5.10;;;2.83;;
5959;SDS011;3006;50.956;7.002;2022-07-11T07:43:41;4.57;;;2.60;;
5959;SDS011;3006;50.956;7.002;2022-07-11T07:46:10;6.17;;;3.67;;
5959;SDS011;3006;50.956;7.002;2022-07-11T07:48:39;5.13;;;4.63;;
5959;SDS011;3006;50.956;7.002;2022-07-11T07:51:07;7.33;;;6.30;;
5959;SDS011;3006;50.956;7.002;2022-07-11T07:53:35;8.77;;;6.63;;
5959;SDS011;3006;50.956;7.002;2022-07-11T07:56:05;11.10;;;7.73;;
5959;SDS011;3006;50.956;7.002;2022-07-11T07:58:33;11.83;;;9.00;;
5959;SDS011;3006;50.956;7.002;2022-07-11T08:01:01;14.47;;;12.33;;
5959;SDS011;3006;50.956;7.002;2022-07-11T08:03:47;16.63;;;12.37;;
5959;SDS011;3006;50.956;7.002;2022-07-11T08:06:15;15.43;;;12.73;;
5959;SDS011;3006;50.956;7.002;2022-07-11T08:08:44;16.27;;;12.50;;
5959;SDS011;3006;50.956;7.002;2022-07-11T08:11:13;18.93;;;13.23;;
5959;SDS011;3006;50.956;7.002;2022-07-11T08:13:58;19.10;;;13.87;;
5959;SDS011;3006;50.956;7.002;2022-07-11T08:16:27;19.77;;;14.73;;
5959;SDS011;3006;50.956;7.002;2022-07-11T08:18:58;19.10;;;14.60;;
5959;SDS011;3006;50.956;7.002;2022-07-11T08:21:27;17.67;;;13.77;;
5959;SDS011;3006;50.956;7.002;2022-07-11T08:23:55;16.47;;;13.20;;
5959;SDS011;3006;50.956;7.002;2022-07-11T08:26:25;19.77;;;14.90;;
5959;SDS011;3006;50.956;7.002;2022-07-11T08:28:59;28.90;;;17.70;;
5959;SDS011;3006;50.956;7.002;2022-07-11T08:31:28;16.73;;;13.93;;
5959;SDS011;3006;50.956;7.002;2022-07-11T08:33:56;23.00;;;15.07;;
5959;SDS011;3006;50.956;7.002;2022-07-11T08:36:25;16.93;;;13.13;;
5959;SDS011;3006;50.956;7.002;2022-07-11T08:38:56;17.60;;;13.13;;
5959;SDS011;3006;50.956;7.002;2022-07-11T08:41:25;15.83;;;11.40;;
5959;SDS011;3006;50.956;7.002;2022-07-11T08:43:57;13.70;;;10.80;;
5959;SDS011;3006;50.956;7.002;2022-07-11T08:46:27;13.33;;;11.90;;
5959;SDS011;3006;50.956;7.002;2022-07-11T08:48:57;18.43;;;13.10;;
5959;SDS011;3006;50.956;7.002;2022-07-11T08:51:29;15.37;;;11.80;;
5959;SDS011;3006;50.956;7.002;2022-07-11T08:53:58;15.07;;;11.40;;
5959;SDS011;3006;50.956;7.002;2022-07-11T08:56:27;14.33;;;12.83;;
5959;SDS011;3006;50.956;7.002;2022-07-11T08:58:56;18.30;;;12.80;;
5959;SDS011;3006;50.956;7.002;2022-07-11T09:01:27;16.53;;;12.30;;
5959;SDS011;3006;50.956;7.002;2022-07-11T09:03:57;16.67;;;13.40;;
5959;SDS011;3006;50.956;7.002;2022-07-11T09:06:26;18.27;;;12.23;;
5959;SDS011;3006;50.956;7.002;2022-07-11T09:08:58;15.30;;;12.20;;
5959;SDS011;3006;50.956;7.002;2022-07-11T09:11:32;18.43;;;12.83;;
5959;SDS011;3006;50.956;7.002;2022-07-11T09:14:20;17.30;;;13.03;;
5959;SDS011;3006;50.956;7.002;2022-07-11T09:16:55;17.70;;;15.77;;
5959;SDS011;3006;50.956;7.002;2022-07-11T09:19:25;19.97;;;17.97;;
5959;SDS011;3006;50.956;7.002;2022-07-11T09:21:58;24.50;;;19.03;;
5959;SDS011;3006;50.956;7.002;2022-07-11T09:24:54;25.37;;;22.87;;
5959;SDS011;3006;50.956;7.002;2022-07-11T09:27:43;25.83;;;23.10;;
5959;SDS011;3006;50.956;7.002;2022-07-11T09:30:15;21.93;;;19.63;;
5959;SDS011;3006;50.956;7.002;2022-07-11T09:32:51;23.70;;;21.20;;
5959;SDS011;3006;50.956;7.002;2022-07-11T09:35:24;25.07;;;22.53;;
5959;SDS011;3006;50.956;7.002;2022-07-11T09:37:54;27.27;;;22.13;;
5959;SDS011;3006;50.956;7.002;2022-07-11T09:40:23;25.73;;;23.13;;
5959;SDS011;3006;50.956;7.002;2022-07-11T09:42:54;28.97;;;25.27;;
5959;SDS011;3006;50.956;7.002;2022-07-11T09:45:24;28.77;;;25.67;;
5959;SDS011;3006;50.956;7.002;2022-07-11T09:48:06;30.00;;;24.80;;
5959;SDS011;3006;50.956;7.002;2022-07-11T09:50:36;29.73;;;25.83;;
5959;SDS011;3006;50.956;7.002;2022-07-11T09:53:12;26.47;;;23.70;;
5959;SDS011;3006;50.956;7.002;2022-07-11T09:55:41;27.33;;;24.00;;
5959;SDS011;3006;50.956;7.002;2022-07-11T09:58:20;24.57;;;21.97;;
5959;SDS011;3006;50.956;7.002;2022-07-11T10:00:58;23.73;;;21.20;;
5959;SDS011;3006;50.956;7.002;2022-07-11T10:03:26;23.37;;;20.47;;
5959;SDS011;3006;50.956;7.002;2022-07-11T10:06:16;23.63;;;20.43;;
5959;SDS011;3006;50.956;7.002;2022-07-11T10:08:45;18.07;;;16.20;;
5959;SDS011;3006;50.956;7.002;2022-07-11T10:11:13;15.87;;;14.47;;
5959;SDS011;3006;50.956;7.002;2022-07-11T10:13:43;15.00;;;13.50;;
5959;SDS011;3006;50.956;7.002;2022-07-11T10:16:14;15.67;;;14.07;;
5959;SDS011;3006;50.956;7.002;2022-07-11T10:18:50;15.30;;;13.90;;
5959;SDS011;3006;50.956;7.002;2022-07-11T10:21:25;18.43;;;15.90;;
5959;SDS011;3006;50.956;7.002;2022-07-11T10:24:08;19.23;;;17.27;;
5959;SDS011;3006;50.956;7.002;2022-07-11T10:26:53;21.10;;;18.30;;
5959;SDS011;3006;50.956;7.002;2022-07-11T10:29:31;29.47;;;18.77;;
5959;SDS011;3006;50.956;7.002;2022-07-11T10:32:06;19.17;;;17.00;;
5959;SDS011;3006;50.956;7.002;2022-07-11T10:34:39;18.73;;;16.70;;
5959;SDS011;3006;50.956;7.002;2022-07-11T10:37:08;19.23;;;15.97;;
5959;SDS011;3006;50.956;7.002;2022-07-11T10:39:39;19.87;;;17.87;;
5959;SDS011;3006;50.956;7.002;2022-07-11T10:42:25;20.17;;;16.00;;
5959;SDS011;3006;50.956;7.002;2022-07-11T10:45:08;17.23;;;15.07;;
5959;SDS011;3006;50.956;7.002;2022-07-11T10:47:40;17.80;;;15.97;;
5959;SDS011;3006;50.956;7.002;2022-07-11T10:50:34;18.77;;;16.87;;
5959;SDS011;3006;50.956;7.002;2022-07-11T10:53:06;17.60;;;15.80;;
5959;SDS011;3006;50.956;7.002;2022-07-11T10:55:42;22.47;;;19.90;;
5959;SDS011;3006;50.956;7.002;2022-07-11T10:58:18;21.10;;;18.70;;
5959;SDS011;3006;50.956;7.002;2022-07-11T11:01:05;17.60;;;15.70;;
5959;SDS011;3006;50.956;7.002;2022-07-11T11:03:36;17.03;;;15.10;;
5959;SDS011;3006;50.956;7.002;2022-07-11T11:06:05;17.97;;;15.10;;
5959;SDS011;3006;50.956;7.002;2022-07-11T11:08:39;17.97;;;16.17;;
5959;SDS011;3006;50.956;7.002;2022-07-11T11:14:18;19.10;;;17.10;;
5959;SDS011;3006;50.956;7.002;2022-07-11T11:16:48;18.70;;;16.80;;
5959;SDS011;3006;50.956;7.002;2022-07-11T11:22:18;19.20;;;17.20;;
5959;SDS011;3006;50.956;7.002;2022-07-11T11:24:48;18.63;;;16.73;;
5959;SDS011;3006;50.956;7.002;2022-07-11T11:27:38;16.30;;;14.60;;
5959;SDS011;3006;50.956;7.002;2022-07-11T11:30:29;19.77;;;16.50;;
5959;SDS011;3006;50.956;7.002;2022-07-11T11:32:59;17.97;;;16.17;;
5959;SDS011;3006;50.956;7.002;2022-07-11T11:35:28;19.03;;;16.93;;
5959;SDS011;3006;50.956;7.002;2022-07-11T11:37:58;21.20;;;18.90;;
5959;SDS011;3006;50.956;7.002;2022-07-11T11:40:27;19.83;;;17.63;;
5959;SDS011;3006;50.956;7.002;2022-07-11T11:42:55;19.13;;;17.37;;
5959;SDS011;3006;50.956;7.002;2022-07-11T11:45:24;19.17;;;17.37;;
5959;SDS011;3006;50.956;7.002;2022-07-11T11:47:52;19.23;;;17.33;;
5959;SDS011;3006;50.956;7.002;2022-07-11T11:50:22;19.70;;;17.60;;
5959;SDS011;3006;50.956;7.002;2022-07-11T11:52:50;20.30;;;18.40;;
5959;SDS011;3006;50.956;7.002;2022-07-11T11:55:20;18.73;;;16.97;;
5959;SDS011;3006;50.956;7.002;2022-07-11T11:57:48;24.33;;;16.60;;
5959;SDS011;3006;50.956;7.002;2022-07-11T12:00:21;18.77;;;16.90;;
5959;SDS011;3006;50.956;7.002;2022-07-11T12:03:16;19.80;;;17.53;;
5959;SDS011;3006;50.956;7.002;2022-07-11T12:05:54;18.10;;;15.53;;
5959;SDS011;3006;50.956;7.002;2022-07-11T12:08:26;20.47;;;17.13;;
5959;SDS011;3006;50.956;7.002;2022-07-11T12:10:55;19.47;;;17.40;;
5959;SDS011;3006;50.956;7.002;2022-07-11T12:13:24;17.07;;;15.27;;
5959;SDS011;3006;50.956;7.002;2022-07-11T12:15:52;18.03;;;16.10;;
5959;SDS011;3006;50.956;7.002;2022-07-11T12:18:38;17.60;;;15.90;;
5959;SDS011;3006;50.956;7.002;2022-07-11T12:21:12;17.87;;;15.23;;
5959;SDS011;3006;50.956;7.002;2022-07-11T12:23:41;18.87;;;16.83;;
5959;SDS011;3006;50.956;7.002;2022-07-11T12:26:09;18.20;;;16.40;;
5959;SDS011;3006;50.956;7.002;2022-07-11T12:31:39;18.53;;;16.70;;
5959;SDS011;3006;50.956;7.002;2022-07-11T12:34:09;20.07;;;17.77;;
5959;SDS011;3006;50.956;7.002;2022-07-11T12:36:39;19.97;;;17.87;;
5959;SDS011;3006;50.956;7.002;2022-07-11T12:39:07;19.10;;;17.20;;
5959;SDS011;3006;50.956;7.002;2022-07-11T12:41:35;18.60;;;16.63;;
5959;SDS011;3006;50.956;7.002;2022-07-11T12:44:04;18.80;;;16.77;;
5959;SDS011;3006;50.956;7.002;2022-07-11T12:46:50;22.10;;;17.13;;
5959;SDS011;3006;50.956;7.002;2022-07-11T12:49:19;23.70;;;17.73;;
5959;SDS011;3006;50.956;7.002;2022-07-11T12:51:55;19.60;;;17.60;;
5959;SDS011;3006;50.956;7.002;2022-07-11T12:54:28;21.40;;;18.03;;
5959;SDS011;3006;50.956;7.002;2022-07-11T12:56:57;20.03;;;17.80;;
5959;SDS011;3006;50.956;7.002;2022-07-11T12:59:28;20.30;;;18.30;;
5959;SDS011;3006;50.956;7.002;2022-07-11T13:01:58;19.00;;;17.00;;
5959;SDS011;3006;50.956;7.002;2022-07-11T13:04:31;20.80;;;18.60;;
5959;SDS011;3006;50.956;7.002;2022-07-11T13:07:22;22.43;;;19.60;;
5959;SDS011;3006;50.956;7.002;2022-07-11T13:10:14;23.70;;;19.10;;
5959;SDS011;3006;50.956;7.002;2022-07-11T13:12:45;26.77;;;19.70;;
5959;SDS011;3006;50.956;7.002;2022-07-11T13:15:14;25.33;;;19.13;;
5959;SDS011;3006;50.956;7.002;2022-07-11T13:17:44;24.00;;;18.20;;
5959;SDS011;3006;50.956;7.002;2022-07-11T13:20:16;23.13;;;18.30;;
5959;SDS011;3006;50.956;7.002;2022-07-11T13:22:47;17.90;;;16.00;;
5959;SDS011;3006;50.956;7.002;2022-07-11T13:25:17;24.37;;;18.60;;
5959;SDS011;3006;50.956;7.002;2022-07-11T13:27:47;19.93;;;17.83;;
5959;SDS011;3006;50.956;7.002;2022-07-11T13:30:18;19.10;;;16.53;;
5959;SDS011;3006;50.956;7.002;2022-07-11T13:33:09;21.37;;;16.90;;
5959;SDS011;3006;50.956;7.002;2022-07-11T13:35:37;20.40;;;16.30;;
5959;SDS011;3006;50.956;7.002;2022-07-11T13:38:07;20.87;;;18.00;;
5959;SDS011;3006;50.956;7.002;2022-07-11T13:40:35;25.37;;;19.30;;
5959;SDS011;3006;50.956;7.002;2022-07-11T13:43:03;20.23;;;18.10;;
5959;SDS011;3006;50.956;7.002;2022-07-11T13:45:31;17.70;;;15.90;;
5959;SDS011;3006;50.956;7.002;2022-07-11T13:48:00;17.87;;;16.07;;
5959;SDS011;3006;50.956;7.002;2022-07-11T13:50:28;19.60;;;17.50;;
5959;SDS011;3006;50.956;7.002;2022-07-11T13:52:56;18.30;;;16.40;;
5959;SDS011;3006;50.956;7.002;2022-07-11T13:55:26;18.83;;;17.00;;
5959;SDS011;3006;50.956;7.002;2022-07-11T13:57:56;17.20;;;15.50;;
5959;SDS011;3006;50.956;7.002;2022-07-11T14:00:25;16.97;;;15.27;;
5959;SDS011;3006;50.956;7.002;2022-07-11T14:02:54;16.13;;;14.53;;
5959;SDS011;3006;50.956;7.002;2022-07-11T14:05:23;16.90;;;15.20;;
5959;SDS011;3006;50.956;7.002;2022-07-11T14:07:52;17.97;;;16.17;;
5959;SDS011;3006;50.956;7.002;2022-07-11T14:10:20;20.03;;;17.70;;
5959;SDS011;3006;50.956;7.002;2022-07-11T14:12:55;19.20;;;15.83;;
5959;SDS011;3006;50.956;7.002;2022-07-11T14:15:25;16.73;;;15.03;;
5959;SDS011;3006;50.956;7.002;2022-07-11T14:17:53;17.33;;;15.23;;
5959;SDS011;3006;50.956;7.002;2022-07-11T14:20:21;18.23;;;14.83;;
5959;SDS011;3006;50.956;7.002;2022-07-11T14:22:50;15.13;;;13.63;;
5959;SDS011;3006;50.956;7.002;2022-07-11T14:25:18;16.00;;;14.40;;
5959;SDS011;3006;50.956;7.002;2022-07-11T14:27:47;17.80;;;16.10;;
5959;SDS011;3006;50.956;7.002;2022-07-11T14:30:18;18.27;;;16.40;;
5959;SDS011;3006;50.956;7.002;2022-07-11T14:32:46;15.97;;;14.43;;
5959;SDS011;3006;50.956;7.002;2022-07-11T14:35:14;15.23;;;12.83;;
5959;SDS011;3006;50.956;7.002;2022-07-11T14:37:43;15.23;;;13.63;;
5959;SDS011;3006;50.956;7.002;2022-07-11T14:40:11;16.03;;;13.67;;
5959;SDS011;3006;50.956;7.002;2022-07-11T14:42:39;15.20;;;13.80;;
5959;SDS011;3006;50.956;7.002;2022-07-11T14:45:09;14.90;;;13.50;;
5959;SDS011;3006;50.956;7.002;2022-07-11T14:47:40;14.50;;;13.00;;
5959;SDS011;3006;50.956;7.002;2022-07-11T14:50:08;17.00;;;15.10;;
5959;SDS011;3006;50.956;7.002;2022-07-11T14:52:37;15.40;;;13.87;;
5959;SDS011;3006;50.956;7.002;2022-07-11T14:55:05;16.93;;;15.33;;
5959;SDS011;3006;50.956;7.002;2022-07-11T14:57:34;16.73;;;15.13;;
5959;SDS011;3006;50.956;7.002;2022-07-11T15:00:03;15.47;;;13.87;;
5959;SDS011;3006;50.956;7.002;2022-07-11T15:02:32;19.93;;;13.67;;
5959;SDS011;3006;50.956;7.002;2022-07-11T15:05:19;15.27;;;13.67;;
5959;SDS011;3006;50.956;7.002;2022-07-11T15:07:48;15.20;;;13.70;;
5959;SDS011;3006;50.956;7.002;2022-07-11T15:10:33;17.97;;;16.03;;
5959;SDS011;3006;50.956;7.002;2022-07-11T15:13:23;23.23;;;17.90;;
5959;SDS011;3006;50.956;7.002;2022-07-11T15:15:52;17.20;;;15.43;;
5959;SDS011;3006;50.956;7.002;2022-07-11T15:18:20;19.47;;;16.63;;
5959;SDS011;3006;50.956;7.002;2022-07-11T15:20:50;18.93;;;17.13;;
5959;SDS011;3006;50.956;7.002;2022-07-11T15:23:18;19.13;;;17.30;;
5959;SDS011;3006;50.956;7.002;2022-07-11T15:25:46;16.90;;;15.17;;
5959;SDS011;3006;50.956;7.002;2022-07-11T15:28:14;17.77;;;15.97;;
5959;SDS011;3006;50.956;7.002;2022-07-11T15:30:53;16.80;;;15.27;;